createdAt,value
2022-11-17T00:00:26.611Z,11.30
2022-11-17T00:03:16.676Z,11.30
2022-11-17T00:06:06.801Z,11.20
2022-11-17T00:08:53.253Z,10.90
2022-11-17T00:11:57.380Z,10.80
2022-11-17T00:14:43.017Z,10.70
2022-11-17T00:17:28.372Z,10.70
2022-11-17T00:20:32.786Z,10.70
2022-11-17T00:23:18.351Z,10.70
2022-11-17T00:26:03.853Z,10.40
2022-11-17T00:28:54.583Z,10.30
2022-11-17T00:31:58.547Z,10.80
2022-11-17T00:34:44.325Z,10.50
2022-11-17T00:37:33.290Z,10.20
2022-11-17T00:40:19.128Z,10.20
2022-11-17T00:43:04.582Z,10.40
2022-11-17T00:45:50.202Z,10.30
2022-11-17T00:48:36.010Z,10.60
2022-11-17T00:51:21.835Z,10.80
2022-11-17T00:54:10.756Z,10.80
2022-11-17T00:56:56.495Z,10.90
2022-11-17T00:59:41.861Z,10.70
2022-11-17T01:02:27.427Z,10.50
2022-11-17T01:05:12.802Z,10.50
2022-11-17T01:07:59.252Z,10.50
2022-11-17T01:10:44.949Z,10.50
2022-11-17T01:13:30.692Z,10.50
2022-11-17T01:16:19.839Z,10.50
2022-11-17T01:19:05.593Z,10.40
2022-11-17T01:21:51.439Z,10.40
2022-11-17T01:24:37.400Z,10.30
2022-11-17T01:27:22.910Z,10.30
2022-11-17T01:30:09.027Z,10.20
2022-11-17T01:32:54.827Z,10.10
2022-11-17T01:35:40.160Z,10.10
2022-11-17T01:38:25.687Z,10.00
2022-11-17T01:41:29.449Z,10.00
2022-11-17T01:44:48.287Z,9.90
2022-11-17T01:47:42.928Z,9.80
2022-11-17T01:50:32.749Z,9.80
2022-11-17T01:53:20.418Z,10.00
2022-11-17T01:56:11.092Z,10.00
2022-11-17T01:59:06.200Z,9.90
2022-11-17T02:01:56.761Z,9.90
2022-11-17T02:04:54.125Z,9.90
2022-11-17T02:07:41.836Z,9.90
2022-11-17T02:10:31.519Z,9.90
2022-11-17T02:13:17.201Z,9.80
2022-11-17T02:16:02.992Z,9.80
2022-11-17T02:18:50.644Z,9.80
2022-11-17T02:22:14.477Z,9.70
2022-11-17T02:25:14.290Z,9.70
2022-11-17T02:28:32.579Z,9.70
2022-11-17T02:31:40.156Z,9.90
2022-11-17T02:34:50.542Z,9.90
2022-11-17T02:37:51.396Z,9.90
2022-11-17T02:40:54.812Z,9.80
2022-11-17T02:44:06.553Z,9.90
2022-11-17T02:46:58.091Z,9.90
2022-11-17T02:50:13.545Z,10.10
2022-11-17T02:52:59.260Z,10.10
2022-11-17T02:55:52.914Z,10.10
2022-11-17T02:58:38.337Z,10.30
2022-11-17T03:01:32.753Z,10.10
2022-11-17T03:04:49.606Z,9.70
2022-11-17T03:08:02.135Z,9.40
2022-11-17T03:10:50.303Z,9.80
2022-11-17T03:14:17.481Z,10.00
2022-11-17T03:17:20.090Z,10.20
2022-11-17T03:20:20.018Z,10.10
2022-11-17T03:23:16.998Z,10.20
2022-11-17T03:26:05.202Z,10.20
2022-11-17T03:28:52.405Z,10.30
2022-11-17T03:31:39.363Z,10.50
2022-11-17T03:34:28.421Z,10.40
2022-11-17T03:37:18.564Z,10.50
2022-11-17T03:40:13.778Z,10.30
2022-11-17T03:43:05.098Z,10.10
2022-11-17T03:45:54.808Z,9.70
2022-11-17T03:48:57.490Z,9.90
2022-11-17T03:51:43.952Z,9.80
2022-11-17T03:54:30.046Z,11.20
2022-11-17T03:57:27.099Z,9.90
2022-11-17T04:00:15.541Z,10.20
2022-11-17T04:03:01.311Z,10.20
2022-11-17T04:05:47.169Z,10.40
2022-11-17T04:08:32.795Z,10.50
2022-11-17T04:11:36.882Z,10.60
2022-11-17T04:14:40.745Z,10.70
2022-11-17T04:17:26.804Z,10.70
2022-11-17T04:20:12.168Z,10.50
2022-11-17T04:23:09.787Z,10.30
2022-11-17T04:26:15.310Z,10.40
2022-11-17T04:29:00.912Z,10.40
2022-11-17T04:31:46.941Z,10.30
2022-11-17T04:34:32.603Z,10.10
2022-11-17T04:37:18.468Z,9.90
2022-11-17T04:40:04.483Z,10.10
2022-11-17T04:42:49.884Z,10.20
2022-11-17T04:45:35.473Z,10.30
2022-11-17T04:48:20.962Z,10.00
2022-11-17T04:51:06.422Z,10.00
2022-11-17T04:53:52.455Z,10.10
2022-11-17T04:56:38.124Z,10.00
2022-11-17T04:59:23.965Z,10.30
2022-11-17T05:02:09.454Z,10.30
2022-11-17T05:04:57.480Z,10.30
2022-11-17T05:07:43.266Z,10.30
2022-11-17T05:10:47.340Z,10.00
2022-11-17T05:13:32.691Z,10.10
2022-11-17T05:16:37.879Z,9.90
2022-11-17T05:19:25.987Z,10.10
2022-11-17T05:22:32.785Z,10.30
2022-11-17T05:25:18.219Z,10.30
2022-11-17T05:28:03.954Z,10.40
2022-11-17T05:30:49.494Z,10.40
2022-11-17T05:33:37.728Z,10.30
2022-11-17T05:36:25.647Z,10.30
2022-11-17T05:39:11.013Z,10.40
2022-11-17T05:41:56.621Z,10.30
2022-11-17T05:44:42.178Z,10.00
2022-11-17T05:47:27.639Z,10.10
2022-11-17T05:50:13.537Z,10.30
2022-11-17T05:52:59.246Z,10.30
2022-11-17T05:55:44.901Z,10.30
2022-11-17T05:58:33.513Z,10.10
2022-11-17T06:01:23.160Z,9.90
2022-11-17T06:04:09.684Z,10.00
2022-11-17T06:06:59.430Z,10.10
2022-11-17T06:09:46.622Z,10.00
2022-11-17T06:12:32.197Z,9.90
2022-11-17T06:15:17.734Z,10.20
2022-11-17T06:18:10.545Z,10.30
2022-11-17T06:20:55.989Z,9.90
2022-11-17T06:23:43.031Z,10.20
2022-11-17T06:26:29.071Z,10.50
2022-11-17T06:29:15.735Z,10.80
2022-11-17T06:32:01.722Z,10.90
2022-11-17T06:34:55.160Z,10.80
2022-11-17T06:37:41.840Z,10.20
2022-11-17T06:40:29.077Z,10.30
2022-11-17T06:47:00.789Z,10.50
2022-11-17T06:52:51.490Z,10.00
2022-11-17T06:55:38.639Z,8.90
2022-11-17T06:58:24.164Z,10.10
2022-11-17T07:01:15.041Z,9.60
2022-11-17T07:04:00.589Z,9.90
2022-11-17T07:06:46.654Z,10.40
2022-11-17T07:09:32.541Z,10.70
2022-11-17T07:12:17.909Z,11.00
2022-11-17T07:15:04.080Z,10.90
2022-11-17T07:17:49.662Z,10.50
2022-11-17T07:20:35.469Z,10.00
2022-11-17T07:23:22.566Z,9.60
2022-11-17T07:26:08.777Z,9.50
2022-11-17T07:28:55.564Z,9.40
2022-11-17T07:31:41.118Z,9.50
2022-11-17T07:34:26.930Z,9.30
2022-11-17T07:37:12.832Z,9.40
2022-11-17T07:39:58.846Z,9.80
2022-11-17T07:42:49.551Z,10.20
2022-11-17T07:45:37.095Z,11.10
2022-11-17T07:48:23.536Z,12.00
2022-11-17T07:51:10.606Z,12.50
2022-11-17T07:53:56.579Z,12.70
2022-11-17T07:56:42.878Z,13.30
2022-11-17T07:59:28.700Z,13.90
2022-11-17T08:02:14.629Z,13.40
2022-11-17T08:05:01.313Z,12.90
2022-11-17T08:07:55.069Z,12.50
2022-11-17T08:10:41.041Z,12.20
2022-11-17T08:13:26.665Z,12.00
2022-11-17T08:16:13.310Z,11.70
2022-11-17T08:18:59.125Z,11.50
2022-11-17T08:21:44.745Z,11.60
2022-11-17T08:24:30.241Z,11.60
2022-11-17T08:27:15.773Z,11.40
2022-11-17T08:30:01.756Z,11.40
2022-11-17T08:32:54.881Z,11.50
2022-11-17T08:35:40.439Z,11.60
2022-11-17T08:38:29.196Z,11.50
2022-11-17T08:41:16.459Z,11.50
2022-11-17T08:44:02.265Z,11.70
2022-11-17T08:46:49.016Z,11.90
2022-11-17T08:49:34.960Z,13.00
2022-11-17T08:52:21.559Z,12.30
2022-11-17T08:55:07.585Z,12.30
2022-11-17T08:57:53.280Z,12.30
2022-11-17T09:00:42.580Z,12.30
2022-11-17T09:03:28.519Z,12.50
2022-11-17T09:06:16.349Z,12.50
2022-11-17T09:09:02.828Z,13.30
2022-11-17T09:11:48.879Z,14.20
2022-11-17T09:14:35.364Z,15.80
2022-11-17T09:17:21.202Z,16.50
2022-11-17T09:20:07.518Z,16.00
2022-11-17T09:22:53.096Z,15.20
2022-11-17T09:25:39.147Z,14.90
2022-11-17T09:28:26.098Z,15.30
2022-11-17T09:31:14.786Z,16.00
2022-11-17T09:34:05.317Z,16.60
2022-11-17T09:36:51.304Z,17.90
2022-11-17T09:39:36.919Z,19.90
2022-11-17T09:42:23.013Z,20.30
2022-11-17T09:45:20.994Z,17.70
2022-11-17T09:48:40.334Z,19.00
2022-11-17T09:51:25.410Z,20.20
2022-11-17T09:54:48.693Z,20.30
2022-11-17T09:57:45.170Z,19.50
2022-11-17T10:00:33.759Z,18.00
2022-11-17T10:03:47.766Z,17.30
2022-11-17T10:06:38.166Z,15.40
2022-11-17T10:09:41.834Z,15.50
2022-11-17T10:12:35.956Z,15.10
2022-11-17T10:15:29.870Z,14.90
2022-11-17T10:18:17.365Z,15.00
2022-11-17T10:21:05.423Z,15.10
2022-11-17T10:23:58.034Z,15.10
2022-11-17T10:26:49.455Z,15.20
2022-11-17T10:29:35.246Z,15.30
2022-11-17T10:32:20.781Z,15.20
2022-11-17T10:35:24.287Z,14.60
2022-11-17T10:38:23.181Z,14.90
2022-11-17T10:41:18.963Z,14.70
2022-11-17T10:44:26.563Z,14.70
2022-11-17T10:47:35.532Z,14.60
2022-11-17T10:50:28.100Z,14.30
2022-11-17T10:53:26.478Z,14.00
2022-11-17T10:56:21.759Z,14.30
2022-11-17T10:59:40.010Z,13.90
2022-11-17T11:02:33.862Z,14.50
2022-11-17T11:05:21.295Z,14.90
2022-11-17T11:08:46.135Z,15.10
2022-11-17T11:11:56.631Z,14.80
2022-11-17T11:15:02.525Z,14.40
2022-11-17T11:17:48.803Z,15.00
2022-11-17T11:20:47.659Z,14.90
2022-11-17T11:23:48.523Z,14.90
2022-11-17T11:26:47.196Z,14.90
2022-11-17T11:29:35.678Z,14.60
2022-11-17T11:32:50.067Z,14.80
2022-11-17T11:36:01.956Z,14.70
2022-11-17T11:39:24.855Z,14.40
2022-11-17T11:42:37.221Z,14.70
2022-11-17T11:45:41.749Z,15.30
2022-11-17T11:48:34.318Z,15.50
2022-11-17T11:51:40.558Z,15.10
2022-11-17T11:54:40.459Z,15.60
2022-11-17T11:57:36.206Z,15.70
2022-11-17T12:00:22.299Z,15.80
2022-11-17T12:03:27.807Z,15.70
2022-11-17T12:06:43.227Z,15.60
2022-11-17T12:09:40.845Z,14.70
2022-11-17T12:12:36.927Z,15.10
2022-11-17T12:15:32.627Z,15.00
2022-11-17T12:18:18.865Z,15.10
2022-11-17T12:21:12.148Z,15.00
2022-11-17T12:24:16.015Z,15.00
2022-11-17T12:27:39.807Z,14.70
2022-11-17T12:30:34.934Z,13.80
2022-11-17T12:33:23.298Z,13.80
2022-11-17T12:36:34.188Z,13.90
2022-11-17T12:40:01.592Z,14.60
2022-11-17T12:43:26.689Z,14.50
2022-11-17T12:46:26.732Z,14.40
2022-11-17T12:49:29.593Z,14.20
2022-11-17T12:52:40.712Z,14.10
2022-11-17T12:55:33.012Z,14.10
2022-11-17T12:58:25.929Z,14.30
2022-11-17T13:01:50.507Z,14.70
2022-11-17T13:05:04.521Z,15.20
2022-11-17T13:10:55.451Z,15.20
2022-11-17T13:13:45.765Z,15.20
2022-11-17T13:16:33.385Z,15.00
2022-11-17T13:22:42.347Z,14.90
2022-11-17T13:28:32.479Z,14.70
2022-11-17T13:31:24.964Z,14.90
2022-11-17T13:34:12.355Z,15.40
2022-11-17T13:37:02.092Z,15.50
2022-11-17T13:40:01.159Z,15.80
2022-11-17T13:42:52.479Z,15.60
2022-11-17T13:45:39.647Z,15.30
2022-11-17T13:48:41.206Z,15.60
2022-11-17T13:54:35.649Z,15.70
2022-11-17T13:57:30.569Z,15.40
2022-11-17T14:00:22.289Z,15.20
2022-11-17T14:03:32.990Z,15.50
2022-11-17T14:06:23.890Z,15.80
2022-11-17T14:09:19.869Z,15.70
2022-11-17T14:12:26.312Z,15.50
2022-11-17T14:16:06.542Z,15.10
2022-11-17T14:26:57.185Z,14.30
2022-11-17T14:29:45.589Z,14.50
2022-11-17T14:32:33.959Z,14.40
2022-11-17T14:35:19.826Z,14.60
2022-11-17T14:38:05.759Z,14.50
2022-11-17T14:40:53.111Z,14.30
2022-11-17T14:43:38.879Z,14.70
2022-11-17T14:46:26.492Z,15.30
2022-11-17T14:49:12.246Z,15.50
2022-11-17T14:51:59.306Z,15.40
2022-11-17T14:54:47.214Z,15.70
2022-11-17T14:57:33.032Z,15.70
2022-11-17T15:00:22.635Z,15.50
2022-11-17T15:06:10.772Z,15.00
2022-11-17T15:09:01.130Z,13.80
2022-11-17T15:11:48.682Z,15.20
2022-11-17T15:14:34.396Z,15.00
2022-11-17T15:17:24.178Z,15.20
2022-11-17T15:20:11.575Z,15.10
2022-11-17T15:23:02.902Z,14.70
2022-11-17T15:25:49.299Z,14.50
2022-11-17T15:28:38.244Z,14.60
2022-11-17T15:31:28.352Z,14.60
2022-11-17T15:34:19.967Z,14.80
2022-11-17T15:37:06.893Z,14.30
2022-11-17T15:39:52.528Z,14.50
2022-11-17T15:42:38.921Z,14.90
2022-11-17T15:45:24.759Z,15.20
2022-11-17T15:48:13.617Z,15.10
2022-11-17T15:51:05.614Z,14.60
2022-11-17T15:53:53.776Z,14.40
2022-11-17T15:56:39.801Z,13.90
2022-11-17T15:59:25.279Z,14.00
2022-11-17T16:02:10.869Z,14.10
2022-11-17T16:04:56.676Z,14.30
2022-11-17T16:07:42.524Z,14.20
2022-11-17T16:10:28.253Z,14.30
2022-11-17T16:13:13.832Z,14.60
2022-11-17T16:15:59.619Z,14.30
2022-11-17T16:18:45.154Z,14.00
2022-11-17T16:21:30.935Z,13.90
2022-11-17T16:24:17.195Z,14.10
2022-11-17T16:27:03.215Z,14.20
2022-11-17T16:29:50.071Z,14.10
2022-11-17T16:32:36.162Z,14.10
2022-11-17T16:35:21.780Z,14.20
2022-11-17T16:38:12.745Z,14.10
2022-11-17T16:41:04.345Z,13.90
2022-11-17T16:43:49.778Z,13.90
2022-11-17T16:46:35.790Z,13.90
2022-11-17T16:49:22.648Z,13.70
2022-11-17T16:52:08.322Z,13.50
2022-11-17T16:54:59.228Z,13.70
2022-11-17T16:57:49.224Z,13.60
2022-11-17T17:00:35.138Z,13.60
2022-11-17T17:03:20.897Z,13.50
2022-11-17T17:06:08.560Z,13.60
2022-11-17T17:08:55.573Z,13.50
2022-11-17T17:11:41.750Z,13.20
2022-11-17T17:14:27.638Z,13.00
2022-11-17T17:17:13.410Z,13.00
2022-11-17T17:19:59.529Z,12.80
2022-11-17T17:22:44.887Z,13.00
2022-11-17T17:25:30.749Z,12.90
2022-11-17T17:28:16.470Z,12.90
2022-11-17T17:31:03.385Z,13.00
2022-11-17T17:33:50.457Z,12.90
2022-11-17T17:36:37.615Z,12.90
2022-11-17T17:39:23.226Z,13.10
2022-11-17T17:42:09.060Z,13.10
2022-11-17T17:44:55.086Z,13.00
2022-11-17T17:47:40.834Z,13.10
2022-11-17T17:50:26.752Z,13.10
2022-11-17T17:53:12.451Z,13.40
2022-11-17T17:56:08.627Z,13.70
2022-11-17T17:58:57.618Z,13.40
2022-11-17T18:01:46.150Z,13.30
2022-11-17T18:04:32.058Z,13.50
2022-11-17T18:07:18.169Z,13.90
2022-11-17T18:10:04.278Z,13.70
2022-11-17T18:12:50.087Z,13.70
2022-11-17T18:15:39.896Z,13.80
2022-11-17T18:18:25.783Z,14.10
2022-11-17T18:21:14.169Z,14.20
2022-11-17T18:24:01.505Z,14.20
2022-11-17T18:26:46.891Z,14.00
2022-11-17T18:29:32.737Z,14.10
2022-11-17T18:32:18.366Z,14.20
2022-11-17T18:35:03.790Z,14.30
2022-11-17T18:37:49.272Z,14.20
2022-11-17T18:40:34.782Z,14.10
2022-11-17T18:43:20.341Z,14.20
2022-11-17T18:46:08.183Z,14.20
2022-11-17T18:48:54.033Z,14.10
2022-11-17T18:51:41.244Z,13.80
2022-11-17T18:54:26.680Z,13.50
2022-11-17T18:57:12.292Z,13.70
2022-11-17T18:59:57.999Z,14.00
2022-11-17T19:02:43.526Z,14.00
2022-11-17T19:05:29.739Z,13.90
2022-11-17T19:08:15.434Z,13.60
2022-11-17T19:11:06.075Z,13.00
2022-11-17T19:13:52.534Z,13.30
2022-11-17T19:16:44.136Z,13.80
2022-11-17T19:19:30.753Z,13.90
2022-11-17T19:22:16.444Z,14.10
2022-11-17T19:25:01.864Z,14.20
2022-11-17T19:27:47.736Z,13.80
2022-11-17T19:30:33.816Z,13.50
2022-11-17T19:33:19.512Z,13.60
2022-11-17T19:36:07.216Z,13.80
2022-11-17T19:38:55.318Z,14.00
2022-11-17T19:41:41.231Z,13.90
2022-11-17T19:44:28.442Z,14.00
2022-11-17T19:47:15.409Z,13.90
2022-11-17T19:50:01.240Z,14.00
2022-11-17T19:52:46.875Z,14.00
2022-11-17T19:55:34.736Z,13.50
2022-11-17T19:58:21.042Z,13.30
2022-11-17T20:01:17.043Z,13.40
2022-11-17T20:04:04.661Z,13.00
2022-11-17T20:06:49.988Z,13.30
2022-11-17T20:09:36.607Z,13.80
2022-11-17T20:12:23.364Z,14.10
2022-11-17T20:15:26.975Z,14.20
2022-11-17T20:18:15.336Z,14.20
2022-11-17T20:21:05.027Z,14.30
2022-11-17T20:23:50.946Z,14.30
2022-11-17T20:26:40.535Z,14.40
2022-11-17T20:29:26.699Z,14.50
2022-11-17T20:32:12.607Z,14.40
2022-11-17T20:34:58.446Z,14.20
2022-11-17T20:37:44.051Z,14.30
2022-11-17T20:40:31.428Z,13.90
2022-11-17T20:43:16.615Z,13.70
2022-11-17T20:46:02.869Z,14.00
2022-11-17T20:48:50.309Z,14.00
2022-11-17T20:51:36.535Z,13.90
2022-11-17T20:54:22.152Z,13.70
2022-11-17T20:57:08.672Z,13.80
2022-11-17T20:59:54.070Z,13.80
2022-11-17T21:02:39.553Z,13.80
2022-11-17T21:05:25.022Z,13.80
2022-11-17T21:08:10.854Z,14.00
2022-11-17T21:11:08.191Z,13.30
2022-11-17T21:13:53.560Z,13.80
2022-11-17T21:16:42.549Z,13.40
2022-11-17T21:19:28.872Z,13.60
2022-11-17T21:22:14.319Z,13.30
2022-11-17T21:24:59.966Z,13.00
2022-11-17T21:27:45.841Z,13.20
2022-11-17T21:30:32.641Z,13.00
2022-11-17T21:33:18.098Z,13.10
2022-11-17T21:36:05.395Z,13.40
2022-11-17T21:38:51.224Z,13.70
2022-11-17T21:41:38.418Z,13.80
2022-11-17T21:44:23.865Z,13.70
2022-11-17T21:47:09.382Z,13.90
2022-11-17T21:49:55.178Z,13.90
2022-11-17T21:52:41.134Z,14.00
2022-11-17T21:55:26.794Z,14.00
2022-11-17T21:58:12.244Z,14.00
2022-11-17T22:00:58.063Z,14.00
2022-11-17T22:03:43.956Z,13.80
2022-11-17T22:06:30.380Z,13.80
2022-11-17T22:09:16.473Z,13.90
2022-11-17T22:12:02.945Z,13.90
2022-11-17T22:14:48.695Z,13.70
2022-11-17T22:17:34.328Z,13.70
2022-11-17T22:20:19.884Z,13.60
2022-11-17T22:23:05.372Z,13.60
2022-11-17T22:25:59.442Z,13.50
2022-11-17T22:28:44.957Z,13.40
2022-11-17T22:31:30.487Z,13.50
2022-11-17T22:34:18.522Z,13.40
2022-11-17T22:37:04.097Z,13.40
2022-11-17T22:39:49.694Z,13.40
2022-11-17T22:42:35.385Z,13.50
2022-11-17T22:45:21.106Z,13.70
2022-11-17T22:48:07.557Z,13.80
2022-11-17T22:50:53.189Z,14.00
2022-11-17T22:53:38.866Z,13.90
2022-11-17T22:56:24.422Z,14.00
2022-11-17T22:59:09.897Z,13.90
2022-11-17T23:01:55.788Z,14.00
2022-11-17T23:04:41.510Z,14.20
2022-11-17T23:07:27.308Z,14.10
2022-11-17T23:10:13.810Z,13.90
2022-11-17T23:12:59.406Z,14.10
2022-11-17T23:15:44.912Z,13.80
2022-11-17T23:18:30.670Z,13.60
2022-11-17T23:21:16.432Z,13.20
2022-11-17T23:24:02.004Z,13.20
2022-11-17T23:26:47.650Z,13.50
2022-11-17T23:29:33.580Z,12.90
2022-11-17T23:32:19.535Z,12.70
2022-11-17T23:35:05.394Z,13.10
2022-11-17T23:37:50.958Z,13.50
2022-11-17T23:40:39.892Z,13.60
2022-11-17T23:43:25.154Z,13.90
2022-11-17T23:46:13.341Z,13.90
2022-11-17T23:48:59.085Z,13.90
2022-11-17T23:51:44.398Z,14.00
2022-11-17T23:54:30.283Z,13.80
2022-11-17T23:57:15.950Z,13.80
